createdAt,value
2023-03-21T00:00:45.538Z,100940.25
2023-03-21T00:03:12.460Z,100947.25
2023-03-21T00:05:43.243Z,100947.22
2023-03-21T00:08:09.972Z,100943.78
2023-03-21T00:10:43.471Z,100948.09
2023-03-21T00:13:13.362Z,100936.66
2023-03-21T00:16:03.725Z,100930.50
2023-03-21T00:18:32.154Z,100928.69
2023-03-21T00:21:29.365Z,100934.75
2023-03-21T00:23:47.761Z,100931.25
2023-03-21T00:26:15.516Z,100932.09
2023-03-21T00:28:43.331Z,100930.31
2023-03-21T00:31:10.604Z,100923.34
2023-03-21T00:33:39.578Z,100931.22
2023-03-21T00:36:07.693Z,100928.66
2023-03-21T00:38:35.061Z,100921.69
2023-03-21T00:41:18.933Z,100929.50
2023-03-21T00:43:52.022Z,100931.22
2023-03-21T00:46:19.474Z,100921.66
2023-03-21T00:48:46.197Z,100925.16
2023-03-21T00:51:15.693Z,100916.44
2023-03-21T00:53:42.877Z,100930.41
2023-03-21T00:56:09.760Z,100922.56
2023-03-21T00:58:36.507Z,100932.09
2023-03-21T01:01:04.506Z,100927.72
2023-03-21T01:03:31.259Z,100932.91
2023-03-21T01:06:05.050Z,100918.97
2023-03-21T01:08:48.563Z,100928.56
2023-03-21T01:11:21.008Z,100932.03
2023-03-21T01:13:54.859Z,100933.72
2023-03-21T01:16:27.488Z,100933.72
2023-03-21T01:18:54.210Z,100936.28
2023-03-21T01:21:20.914Z,100941.47
2023-03-21T01:23:48.029Z,100946.66
2023-03-21T01:26:15.438Z,100944.91
2023-03-21T01:28:43.347Z,100947.53
2023-03-21T01:31:13.264Z,100957.06
2023-03-21T01:33:40.010Z,100948.31
2023-03-21T01:36:12.985Z,100950.94
2023-03-21T01:38:41.705Z,100957.81
2023-03-21T01:41:20.074Z,100951.69
2023-03-21T01:43:47.375Z,100956.88
2023-03-21T01:46:47.810Z,100955.97
2023-03-21T01:49:26.220Z,100951.63
2023-03-21T01:52:03.641Z,100949.97
2023-03-21T01:54:41.217Z,100952.59
2023-03-21T01:57:16.886Z,100943.06
2023-03-21T01:59:46.414Z,100955.28
2023-03-21T02:02:27.167Z,100955.28
2023-03-21T02:04:58.273Z,100951.75
2023-03-21T02:07:29.411Z,100960.47
2023-03-21T02:09:56.556Z,100955.25
2023-03-21T02:12:23.290Z,100960.53
2023-03-21T02:14:51.816Z,100961.41
2023-03-21T02:17:43.632Z,100962.34
2023-03-21T02:20:12.977Z,100959.75
2023-03-21T02:22:52.784Z,100961.50
2023-03-21T02:25:49.835Z,100963.25
2023-03-21T02:28:33.016Z,100966.75
2023-03-21T02:31:10.932Z,100969.34
2023-03-21T02:34:15.520Z,100981.50
2023-03-21T02:36:59.132Z,100972.75
2023-03-21T02:39:34.736Z,100970.16
2023-03-21T02:42:22.808Z,100969.28
2023-03-21T02:45:11.387Z,100971.88
2023-03-21T02:47:52.773Z,100968.41
2023-03-21T02:50:45.713Z,100962.38
2023-03-21T02:53:16.795Z,100968.50
2023-03-21T02:55:44.957Z,100968.53
2023-03-21T02:58:17.374Z,100977.25
2023-03-21T03:00:46.124Z,100965.94
2023-03-21T03:03:24.824Z,100979.06
2023-03-21T03:06:01.214Z,100984.22
2023-03-21T03:09:02.884Z,100978.88
2023-03-21T03:11:39.289Z,100981.50
2023-03-21T03:14:42.072Z,100975.34
2023-03-21T03:17:28.281Z,100979.69
2023-03-21T03:20:15.663Z,100976.25
2023-03-21T03:22:47.439Z,100978.88
2023-03-21T03:25:32.663Z,100971.94
2023-03-21T03:28:09.461Z,100985.91
2023-03-21T03:30:44.704Z,100981.56
2023-03-21T03:33:17.135Z,100985.91
2023-03-21T03:35:48.268Z,100989.44
2023-03-21T03:38:23.090Z,100990.28
2023-03-21T03:40:58.711Z,100991.94
2023-03-21T03:43:33.054Z,100996.25
2023-03-21T03:46:12.384Z,100991.03
2023-03-21T03:48:52.199Z,101003.16
2023-03-21T03:51:42.867Z,100999.66
2023-03-21T03:54:14.390Z,101003.16
2023-03-21T03:56:41.163Z,101000.50
2023-03-21T03:59:08.131Z,100997.03
2023-03-21T04:01:35.296Z,100996.13
2023-03-21T04:04:12.565Z,101004.81
2023-03-21T04:06:39.762Z,100999.53
2023-03-21T04:09:19.293Z,101002.19
2023-03-21T04:11:47.997Z,101004.78
2023-03-21T04:14:15.379Z,101000.44
2023-03-21T04:16:42.428Z,100993.50
2023-03-21T04:19:09.420Z,100992.72
2023-03-21T04:21:36.610Z,101001.47
2023-03-21T04:24:03.667Z,100995.44
2023-03-21T04:26:33.118Z,101002.44
2023-03-21T04:29:03.510Z,100998.91
2023-03-21T04:31:33.947Z,101003.22
2023-03-21T04:34:02.559Z,101012.78
2023-03-21T04:36:39.294Z,101017.94
2023-03-21T04:39:12.309Z,101018.78
2023-03-21T04:41:44.227Z,101018.78
2023-03-21T04:44:12.237Z,101016.94
2023-03-21T04:46:40.217Z,101022.03
2023-03-21T04:49:07.771Z,101028.94
2023-03-21T04:51:34.695Z,101025.44
2023-03-21T04:54:01.565Z,101031.56
2023-03-21T04:56:33.866Z,101035.03
2023-03-21T04:59:03.861Z,101033.22
2023-03-21T05:01:30.938Z,101032.28
2023-03-21T05:04:02.300Z,101034.00
2023-03-21T05:06:30.066Z,101034.91
2023-03-21T05:09:01.611Z,101038.41
2023-03-21T05:11:30.984Z,101035.81
2023-03-21T05:13:59.071Z,101039.31
2023-03-21T05:16:27.181Z,101036.72
2023-03-21T05:18:55.592Z,101035.03
2023-03-21T05:21:22.996Z,101037.66
2023-03-21T05:23:55.397Z,101028.16
2023-03-21T05:26:25.903Z,101030.00
2023-03-21T05:28:52.602Z,101024.78
2023-03-21T05:31:20.419Z,101029.22
2023-03-21T05:33:47.841Z,101030.97
2023-03-21T05:36:15.732Z,101021.41
2023-03-21T05:38:45.682Z,101028.38
2023-03-21T05:41:19.109Z,101024.00
2023-03-21T05:43:45.918Z,101029.25
2023-03-21T05:46:12.676Z,101034.47
2023-03-21T05:48:39.805Z,101026.63
2023-03-21T05:51:06.674Z,101035.38
2023-03-21T05:53:33.316Z,101036.28
2023-03-21T05:55:59.960Z,101031.88
2023-03-21T05:58:26.588Z,101033.63
2023-03-21T06:00:53.200Z,101032.75
2023-03-21T06:03:19.792Z,101039.81
2023-03-21T06:05:46.519Z,101038.97
2023-03-21T06:08:13.177Z,101039.88
2023-03-21T06:10:39.912Z,101045.13
2023-03-21T06:13:06.549Z,101045.13
2023-03-21T06:15:33.501Z,101043.34
2023-03-21T06:18:00.144Z,101046.00
2023-03-21T06:20:26.772Z,101048.66
2023-03-21T06:22:53.379Z,101045.28
2023-03-21T06:25:21.437Z,101045.31
2023-03-21T06:27:48.113Z,101043.63
2023-03-21T06:30:15.301Z,101045.41
2023-03-21T06:32:41.966Z,101049.84
2023-03-21T06:35:08.979Z,101044.56
2023-03-21T06:37:35.617Z,101040.25
2023-03-21T06:40:02.211Z,101041.19
2023-03-21T06:42:30.116Z,101044.66
2023-03-21T06:44:56.728Z,101042.00
2023-03-21T06:47:23.325Z,101047.22
2023-03-21T06:49:49.944Z,101047.22
2023-03-21T06:52:16.528Z,101048.06
2023-03-21T06:54:43.225Z,101046.34
2023-03-21T06:57:10.296Z,101058.56
2023-03-21T06:59:36.956Z,101044.69
2023-03-21T07:02:03.587Z,101045.59
2023-03-21T07:04:30.254Z,101051.66
2023-03-21T07:06:57.184Z,101047.25
2023-03-21T07:09:28.011Z,101056.81
2023-03-21T07:11:54.679Z,101052.44
2023-03-21T07:14:21.365Z,101047.19
2023-03-21T07:16:48.020Z,101051.56
2023-03-21T07:19:15.842Z,101051.66
2023-03-21T07:21:42.486Z,101047.31
2023-03-21T07:24:09.188Z,101047.38
2023-03-21T07:26:35.842Z,101041.25
2023-03-21T07:29:02.459Z,101046.41
2023-03-21T07:31:29.653Z,101051.63
2023-03-21T07:33:56.348Z,101053.31
2023-03-21T07:36:23.218Z,101060.31
2023-03-21T07:38:49.870Z,101064.69
2023-03-21T07:43:48.082Z,101076.03
2023-03-21T07:46:14.769Z,101073.44
2023-03-21T07:48:41.396Z,101082.19
2023-03-21T07:51:08.049Z,101073.47
2023-03-21T07:53:34.687Z,101072.63
2023-03-21T07:56:01.464Z,101070.03
2023-03-21T07:58:28.605Z,101077.00
2023-03-21T08:00:58.282Z,101068.34
2023-03-21T08:03:26.484Z,101073.56
2023-03-21T08:05:53.190Z,101077.06
2023-03-21T08:08:19.879Z,101086.59
2023-03-21T08:10:46.652Z,101083.97
2023-03-21T08:13:13.544Z,101090.09
2023-03-21T08:15:42.348Z,101092.72
2023-03-21T08:18:10.728Z,101084.06
2023-03-21T08:20:38.158Z,101091.94
2023-03-21T08:23:04.881Z,101087.59
2023-03-21T08:25:32.196Z,101088.50
2023-03-21T08:27:59.266Z,101085.91
2023-03-21T08:30:28.277Z,101082.41
2023-03-21T08:33:01.326Z,101077.16
2023-03-21T08:35:29.774Z,101076.31
2023-03-21T08:37:56.401Z,101082.41
2023-03-21T08:40:23.161Z,101074.56
2023-03-21T08:42:49.910Z,101085.06
2023-03-21T08:45:17.947Z,101081.59
2023-03-21T08:47:45.342Z,101077.28
2023-03-21T08:50:15.630Z,101074.72
2023-03-21T08:52:42.367Z,101073.03
2023-03-21T08:55:09.779Z,101074.84
2023-03-21T08:57:36.773Z,101072.25
2023-03-21T09:00:15.005Z,101072.25
2023-03-21T09:02:42.831Z,101078.41
2023-03-21T09:05:12.144Z,101073.13
2023-03-21T09:07:40.006Z,101069.66
2023-03-21T09:10:20.259Z,101075.78
2023-03-21T09:12:49.809Z,101073.13
2023-03-21T09:15:17.979Z,101078.38
2023-03-21T09:17:50.089Z,101075.75
2023-03-21T09:20:20.961Z,101065.25
2023-03-21T09:22:49.635Z,101066.09
2023-03-21T09:25:16.781Z,101066.91
2023-03-21T09:27:45.738Z,101061.63
2023-03-21T09:30:16.346Z,101058.13
2023-03-21T09:32:45.680Z,101059.84
2023-03-21T09:35:12.909Z,101067.69
2023-03-21T09:37:42.383Z,101054.53
2023-03-21T09:40:21.460Z,101057.16
2023-03-21T09:43:07.394Z,101057.09
2023-03-21T09:45:48.186Z,101054.44
2023-03-21T09:48:37.643Z,101052.59
2023-03-21T09:51:15.887Z,101059.53
2023-03-21T09:53:46.998Z,101057.75
2023-03-21T09:56:14.067Z,101050.66
2023-03-21T09:58:54.721Z,101063.72
2023-03-21T10:01:28.353Z,101058.38
2023-03-21T10:03:56.894Z,101067.91
2023-03-21T10:06:29.526Z,101064.31
2023-03-21T10:09:09.313Z,101061.66
2023-03-21T10:11:49.173Z,101058.13
2023-03-21T10:14:24.352Z,101052.78
2023-03-21T10:17:22.509Z,101049.25
2023-03-21T10:20:12.061Z,101050.06
2023-03-21T10:22:39.302Z,101049.19
2023-03-21T10:25:07.810Z,101051.81
2023-03-21T10:27:37.096Z,101047.41
2023-03-21T10:30:07.582Z,101046.41
2023-03-21T10:32:35.945Z,101040.13
2023-03-21T10:35:05.094Z,101039.13
2023-03-21T10:37:32.671Z,101042.50
2023-03-21T10:39:59.696Z,101031.75
2023-03-21T10:42:30.947Z,101029.88
2023-03-21T10:44:58.738Z,101028.00
2023-03-21T10:47:30.085Z,101032.25
2023-03-21T10:50:08.040Z,101024.22
2023-03-21T10:52:38.370Z,101019.63
2023-03-21T10:55:17.577Z,101022.88
2023-03-21T10:57:46.819Z,101015.75
2023-03-21T11:00:27.642Z,101026.13
2023-03-21T11:02:54.960Z,101019.81
2023-03-21T11:05:24.435Z,101018.63
2023-03-21T11:08:02.923Z,101013.13
2023-03-21T11:11:03.105Z,101018.31
2023-03-21T11:13:41.460Z,101008.63
2023-03-21T11:16:19.338Z,101007.53
2023-03-21T11:18:51.381Z,101000.41
2023-03-21T11:21:18.185Z,101004.91
2023-03-21T11:23:48.736Z,101001.41
2023-03-21T11:26:36.959Z,101005.88
2023-03-21T11:29:37.180Z,100994.47
2023-03-21T11:32:14.749Z,100998.81
2023-03-21T11:34:50.642Z,100996.28
2023-03-21T11:37:22.091Z,100994.50
2023-03-21T11:39:55.499Z,100984.81
2023-03-21T11:42:32.205Z,100989.97
2023-03-21T11:45:14.061Z,100995.16
2023-03-21T11:47:40.882Z,100995.91
2023-03-21T11:50:45.008Z,100992.19
2023-03-21T11:53:40.518Z,100993.03
2023-03-21T11:56:09.733Z,100994.72
2023-03-21T11:58:49.807Z,100983.22
2023-03-21T12:01:49.604Z,100984.78
2023-03-21T12:04:34.705Z,100988.97
2023-03-21T12:07:13.509Z,100977.50
2023-03-21T12:09:43.015Z,100982.06
2023-03-21T12:12:38.359Z,100983.13
2023-03-21T12:15:11.956Z,100975.09
2023-03-21T12:18:00.428Z,100970.59
2023-03-21T12:20:44.619Z,100971.38
2023-03-21T12:23:35.769Z,100971.22
2023-03-21T12:26:02.369Z,100978.03
2023-03-21T12:28:50.958Z,100971.81
2023-03-21T12:31:41.113Z,100969.94
2023-03-21T12:34:26.153Z,100972.69
2023-03-21T12:37:14.389Z,100963.97
2023-03-21T12:39:41.214Z,100961.44
2023-03-21T12:42:13.497Z,100967.72
2023-03-21T12:44:45.996Z,100964.28
2023-03-21T12:47:20.829Z,100970.44
2023-03-21T12:49:59.739Z,100972.13
2023-03-21T12:52:32.626Z,100970.50
2023-03-21T12:55:07.451Z,100968.94
2023-03-21T12:57:44.610Z,100963.97
2023-03-21T13:00:20.160Z,100961.44
2023-03-21T13:02:55.515Z,100954.31
2023-03-21T13:05:28.030Z,100954.19
2023-03-21T13:08:04.424Z,100946.22
2023-03-21T13:10:32.613Z,100942.66
2023-03-21T13:13:10.035Z,100931.19
2023-03-21T13:15:50.682Z,100923.13
2023-03-21T13:18:29.862Z,100915.28
2023-03-21T13:20:58.640Z,100918.91
2023-03-21T13:23:33.040Z,100928.53
2023-03-21T13:25:59.692Z,100920.69
2023-03-21T13:28:29.441Z,100918.84
2023-03-21T13:31:19.785Z,100925.75
2023-03-21T13:33:51.252Z,100920.50
2023-03-21T13:36:30.048Z,100924.00
2023-03-21T13:39:02.990Z,100928.53
2023-03-21T13:41:42.895Z,100923.41
2023-03-21T13:44:18.633Z,100924.19
2023-03-21T13:46:54.910Z,100921.41
2023-03-21T13:49:34.321Z,100922.28
2023-03-21T13:52:08.925Z,100920.38
2023-03-21T13:54:57.537Z,100906.31
2023-03-21T13:57:30.589Z,100904.69
2023-03-21T14:00:27.838Z,100895.13
2023-03-21T14:03:01.181Z,100889.72
2023-03-21T14:05:28.886Z,100889.72
2023-03-21T14:08:12.416Z,100900.22
2023-03-21T14:10:53.873Z,100899.38
2023-03-21T14:13:24.797Z,100896.84
2023-03-21T14:15:56.874Z,100896.91
2023-03-21T14:18:35.386Z,100891.63
2023-03-21T14:21:24.328Z,100886.38
2023-03-21T14:24:12.528Z,100876.78
2023-03-21T14:26:48.861Z,100884.63
2023-03-21T14:29:31.606Z,100877.81
2023-03-21T14:32:00.333Z,100875.47
2023-03-21T14:34:29.820Z,100877.38
2023-03-21T14:36:58.944Z,100868.66
2023-03-21T14:39:33.670Z,100869.63
2023-03-21T14:42:06.445Z,100865.34
2023-03-21T14:44:54.830Z,100869.75
2023-03-21T14:47:26.125Z,100866.22
2023-03-21T14:49:53.130Z,100862.59
2023-03-21T14:52:34.202Z,100858.13
2023-03-21T14:55:03.843Z,100859.75
2023-03-21T14:57:33.890Z,100858.00
2023-03-21T15:00:14.571Z,100858.03
2023-03-21T15:02:43.295Z,100860.69
2023-03-21T15:05:17.209Z,100850.19
2023-03-21T15:07:54.266Z,100846.63
2023-03-21T15:10:21.277Z,100844.91
2023-03-21T15:12:56.566Z,100849.44
2023-03-21T15:15:27.298Z,100851.34
2023-03-21T15:17:56.910Z,100845.34
2023-03-21T15:20:28.674Z,100840.16
2023-03-21T15:23:00.713Z,100825.19
2023-03-21T15:25:31.094Z,100834.72
2023-03-21T15:27:57.725Z,100832.94
2023-03-21T15:30:28.072Z,100834.66
2023-03-21T15:33:05.060Z,100827.50
2023-03-21T15:35:39.951Z,100823.97
2023-03-21T15:38:07.077Z,100825.75
2023-03-21T15:40:35.719Z,100828.41
2023-03-21T15:43:14.499Z,100813.44
2023-03-21T15:45:55.491Z,100816.97
2023-03-21T15:48:29.149Z,100813.44
2023-03-21T15:50:55.730Z,100812.63
2023-03-21T15:53:25.023Z,100803.00
2023-03-21T15:55:57.676Z,100804.72
2023-03-21T15:58:27.608Z,100797.66
2023-03-21T16:01:01.711Z,100806.44
2023-03-21T16:03:35.788Z,100800.25
2023-03-21T16:06:11.426Z,100803.84
2023-03-21T16:08:52.965Z,100810.91
2023-03-21T16:11:26.098Z,100812.63
2023-03-21T16:13:54.033Z,100806.56
2023-03-21T16:16:23.664Z,100807.53
2023-03-21T16:18:51.725Z,100798.81
2023-03-21T16:21:21.378Z,100799.69
2023-03-21T16:23:48.571Z,100799.63
2023-03-21T16:26:27.669Z,100800.44
2023-03-21T16:28:54.549Z,100806.56
2023-03-21T16:31:24.356Z,100803.06
2023-03-21T16:33:51.425Z,100803.13
2023-03-21T16:36:24.681Z,100800.66
2023-03-21T16:38:55.369Z,100808.63
2023-03-21T16:41:26.890Z,100796.47
2023-03-21T16:43:54.163Z,100802.72
2023-03-21T16:46:26.480Z,100795.84
2023-03-21T16:48:55.888Z,100798.56
2023-03-21T16:51:31.545Z,100791.72
2023-03-21T16:53:58.530Z,100802.44
2023-03-21T16:56:29.378Z,100796.41
2023-03-21T16:58:57.885Z,100791.28
2023-03-21T17:01:29.953Z,100797.53
2023-03-21T17:04:00.449Z,100797.63
2023-03-21T17:06:29.493Z,100801.22
2023-03-21T17:08:57.518Z,100800.47
2023-03-21T17:11:27.160Z,100803.16
2023-03-21T17:13:54.961Z,100803.19
2023-03-21T17:16:26.565Z,100803.28
2023-03-21T17:18:53.986Z,100804.25
2023-03-21T17:21:21.993Z,100795.53
2023-03-21T17:23:50.322Z,100799.09
2023-03-21T17:26:21.214Z,100803.59
2023-03-21T17:28:47.873Z,100808.09
2023-03-21T17:31:17.484Z,100801.19
2023-03-21T17:33:44.799Z,100798.69
2023-03-21T17:36:17.232Z,100788.25
2023-03-21T17:38:47.786Z,100790.03
2023-03-21T17:41:18.230Z,100789.25
2023-03-21T17:43:45.108Z,100791.06
2023-03-21T17:46:14.339Z,100786.75
2023-03-21T17:48:41.520Z,100785.06
2023-03-21T17:51:12.753Z,100781.59
2023-03-21T17:53:39.389Z,100791.28
2023-03-21T17:56:06.875Z,100792.19
2023-03-21T17:58:33.566Z,100789.56
2023-03-21T18:01:00.366Z,100786.97
2023-03-21T18:03:26.963Z,100794.00
2023-03-21T18:05:53.613Z,100794.09
2023-03-21T18:08:20.291Z,100791.50
2023-03-21T18:10:46.920Z,100788.91
2023-03-21T18:13:13.548Z,100790.75
2023-03-21T18:15:44.038Z,100791.69
2023-03-21T18:18:12.027Z,100785.59
2023-03-21T18:20:52.122Z,100783.91
2023-03-21T18:23:19.928Z,100775.16
2023-03-21T18:25:47.041Z,100775.28
2023-03-21T18:28:13.994Z,100773.63
2023-03-21T18:31:09.580Z,100777.19
2023-03-21T18:33:28.573Z,100781.59
2023-03-21T18:35:59.601Z,100775.50
2023-03-21T18:38:29.529Z,100765.91
2023-03-21T18:40:56.788Z,100769.44
2023-03-21T18:46:10.866Z,100771.25
2023-03-21T18:48:37.480Z,100768.69
2023-03-21T18:51:04.513Z,100769.59
2023-03-21T18:53:31.575Z,100759.97
2023-03-21T18:55:58.377Z,100765.25
2023-03-21T18:58:25.523Z,100757.41
2023-03-21T19:00:53.656Z,100761.84
2023-03-21T19:03:35.408Z,100761.88
2023-03-21T19:06:04.754Z,100759.28
2023-03-21T19:08:31.957Z,100754.94
2023-03-21T19:11:03.346Z,100743.63
2023-03-21T19:13:33.717Z,100748.88
2023-03-21T19:16:02.496Z,100754.16
2023-03-21T19:18:50.108Z,100759.44
2023-03-21T19:21:17.420Z,100762.03
2023-03-21T19:24:20.790Z,100753.22
2023-03-21T19:26:30.933Z,100753.22
2023-03-21T19:28:57.643Z,100753.28
2023-03-21T19:31:24.797Z,100753.31
2023-03-21T19:33:51.864Z,100742.84
2023-03-21T19:36:22.676Z,100748.13
2023-03-21T19:38:50.532Z,100741.16
2023-03-21T19:41:18.538Z,100742.94
2023-03-21T19:43:54.157Z,100742.13
2023-03-21T19:46:24.867Z,100742.13
2023-03-21T19:48:56.154Z,100744.78
2023-03-21T19:51:28.666Z,100739.56
2023-03-21T19:53:56.304Z,100743.09
2023-03-21T19:56:26.458Z,100737.88
2023-03-21T19:58:54.065Z,100734.41
2023-03-21T20:01:21.192Z,100731.00
2023-03-21T20:03:48.033Z,100729.28
2023-03-21T20:06:14.807Z,100731.91
2023-03-21T20:11:28.213Z,100724.03
2023-03-21T20:13:54.956Z,100724.00
2023-03-21T20:16:21.786Z,100716.13
2023-03-21T20:18:48.484Z,100710.00
2023-03-21T20:21:17.876Z,100705.63
2023-03-21T20:23:49.274Z,100705.66
2023-03-21T20:26:16.845Z,100703.94
2023-03-21T20:29:01.208Z,100708.31
2023-03-21T20:31:32.614Z,100709.16
2023-03-21T20:33:59.409Z,100695.19
2023-03-21T20:36:39.971Z,100694.28
2023-03-21T20:39:07.272Z,100690.75
2023-03-21T20:41:33.988Z,100691.66
2023-03-21T20:46:50.293Z,100692.59
2023-03-21T20:49:17.073Z,100691.75
2023-03-21T20:54:30.635Z,100688.31
2023-03-21T20:56:57.340Z,100696.25
2023-03-21T20:59:27.540Z,100686.66
2023-03-21T21:01:57.271Z,100684.97
2023-03-21T21:04:44.285Z,100685.84
2023-03-21T21:07:15.928Z,100677.16
2023-03-21T21:09:46.836Z,100677.19
2023-03-21T21:12:15.139Z,100667.56
2023-03-21T21:14:42.416Z,100667.56
2023-03-21T21:17:30.800Z,100672.81
2023-03-21T21:19:57.536Z,100664.97
2023-03-21T21:22:24.218Z,100659.72
2023-03-21T21:24:51.351Z,100667.59
2023-03-21T21:27:18.052Z,100664.09
2023-03-21T21:29:47.783Z,100664.97
2023-03-21T21:32:17.033Z,100653.59
2023-03-21T21:34:43.692Z,100656.22
2023-03-21T21:37:10.717Z,100653.59
2023-03-21T21:39:38.619Z,100645.72
2023-03-21T21:42:05.398Z,100649.19
2023-03-21T21:44:32.381Z,100645.66
2023-03-21T21:46:59.319Z,100638.63
2023-03-21T21:49:26.853Z,100629.00
2023-03-21T21:51:53.742Z,100632.47
2023-03-21T21:54:20.408Z,100627.25
2023-03-21T21:56:54.225Z,100621.09
2023-03-21T21:59:22.229Z,100623.72
2023-03-21T22:01:51.353Z,100622.81
2023-03-21T22:04:19.157Z,100626.34
2023-03-21T22:06:47.608Z,100623.75
2023-03-21T22:09:15.885Z,100618.47
2023-03-21T22:11:42.763Z,100611.50
2023-03-21T22:14:09.443Z,100606.28
2023-03-21T22:16:36.414Z,100605.38
2023-03-21T22:19:03.502Z,100603.63
2023-03-21T22:21:30.238Z,100601.88
2023-03-21T22:23:56.977Z,100596.63
2023-03-21T22:26:23.749Z,100593.16
2023-03-21T22:28:50.786Z,100584.38
2023-03-21T22:31:17.490Z,100573.91
2023-03-21T22:33:45.505Z,100574.75
2023-03-21T22:36:12.554Z,100572.09
2023-03-21T22:38:41.806Z,100574.72
2023-03-21T22:41:08.602Z,100571.25
2023-03-21T22:43:35.379Z,100570.41
2023-03-21T22:46:03.215Z,100569.53
2023-03-21T22:48:30.902Z,100553.84
2023-03-21T22:50:59.138Z,100551.25
2023-03-21T22:53:26.013Z,100549.44
2023-03-21T22:55:52.695Z,100551.25
2023-03-21T22:58:19.492Z,100542.50
2023-03-21T23:00:47.281Z,100538.13
2023-03-21T23:03:14.713Z,100535.53
2023-03-21T23:05:42.146Z,100530.31
2023-03-21T23:08:09.584Z,100529.47
2023-03-21T23:10:41.103Z,100532.91
2023-03-21T23:13:08.063Z,100526.81
2023-03-21T23:15:34.704Z,100518.09
2023-03-21T23:18:01.478Z,100514.59
2023-03-21T23:20:28.172Z,100511.09
2023-03-21T23:22:55.600Z,100504.19
2023-03-21T23:25:22.355Z,100510.38
2023-03-21T23:27:48.988Z,100506.03
2023-03-21T23:30:15.767Z,100504.31
2023-03-21T23:32:42.870Z,100495.56
2023-03-21T23:35:10.336Z,100492.91
2023-03-21T23:37:37.019Z,100496.38
2023-03-21T23:40:06.417Z,100490.34
2023-03-21T23:42:34.277Z,100490.38
2023-03-21T23:45:01.203Z,100491.28
2023-03-21T23:47:28.024Z,100493.03
2023-03-21T23:49:54.944Z,100488.66
2023-03-21T23:52:21.845Z,100476.50
2023-03-21T23:54:48.465Z,100479.09
2023-03-21T23:57:16.819Z,100481.75
2023-03-21T23:59:43.962Z,100481.78
